AirNav   ProFlight Series 2 Aviation Headset
 
 1038 users online  

FA97 Indian River County Sheriff's Office Heliport
Vero Beach, Florida, USA

GOING TO VERO BEACH?


FAA INFORMATION EFFECTIVE 16 JULY 2020

Location

FAA Identifier: FA97
Lat/Long: 27-39-58.0000N 080-25-30.0000W
27-39.966667N 080-25.500000W
27.6661111,-80.4250000
(estimated)
Elevation: 24 ft. / 7 m (estimated)
From city: 2 miles NW of VERO BEACH, FL
Time zone: UTC -4 (UTC -5 during Standard Time)
Zip code: 32960

Heliport Operations

Heliport use: Private use. Permission required prior to landing
Activation date: 07/2017
Control tower: no
ARTCC: MIAMI CENTER
FSS: SAINT PETERSBURG FLIGHT SERVICE STATION
Attendance: 
Wind indicator: lighted
Segmented circle: no

Heliport Communications

WX ASOS at VRB (0.7 nm SE): PHONE 772-978-9535
WX AWOS-3PT at X26 (10 nm NW): 118.125 (772-388-5689)
WX ASOS at FPR (10 nm S): PHONE 772-489-4281
WX AWOS-3 at X59 (19 nm N): 122.725

Nearby radio navigation aids

VOR radial/distance  VOR name  Freq  Var
TRVr109/3.5TREASURE VORTAC117.3007W
MLBr164/28.6MELBOURNE VOR/DME110.0007W

 
NDB name  Hdg/Dist  Freq  Var  ID
FORT PIERCE353/11.127507WFPR ..-. .--. .-.

Heliport Services

Runway Information

Helipad H1

Dimensions: 40 x 40 ft. / 12 x 12 m
Surface: concrete
Latitude: 27-39.966667N
Longitude: 080-25.500000W
Elevation: 24.0 ft.
Traffic pattern: leftleft

Heliport Ownership and Management from official FAA records

Ownership: Privately-owned
Owner: INDIAN RIVER COUNTY
4055 41ST AVE
VERO BEACH, FL 32960
Phone 772-569-6700
Manager: LAURA TURNER
4055 41ST AVE
VERO BEACH, FL 32690
Phone 772-978-6200

Heliport Operational Statistics

Aircraft based on the field: 3
Helicopters: 3
    

Additional Remarks

FOR CD CTC PALM BEACH APCH AT 561-275-1430

Instrument Procedures

There are no published instrument procedures at FA97.

Some nearby airports with instrument procedures:

KVRB - Vero Beach Regional Airport (1 nm SE)
X26 - Sebastian Municipal Airport (10 nm NW)
KFPR - Treasure Coast International Airport (10 nm S)
KMLB - Melbourne International Airport (29 nm NW)
KSUA - Witham Field Airport (31 nm S)
 
Loc | Ops | Rwys | IFR | FBO | Links
Com | Nav | Svcs | Stats | Notes
Aerial photo
No photo
 
Airport distance calculator
Flying to Indian River County Sheriff's Office Heliport? Find the distance to fly.

From to FA97

Sunrise and sunset
Times for 12-Aug-2020
 Local
(UTC-4)
 Zulu
(UTC)
Morning civil twilight06:2810:28
Sunrise06:5210:52
Sunset20:0100:01
Evening civil twilight20:2600:26

Current date and time
Zulu (UTC)  13-Aug-2020 02:15:27
Local (UTC-4)  12-Aug-2020 22:15:27
 
METAR
KVRB 130153Z AUTO 14005KT 10SM CLR 28/24 A3003 RMK AO2 SLP169 T02830239
KX26 
10nm NW 
130150Z AUTO 29005KT 10SM CLR 26/24 A3005 RMK AO2 LTG DSNT SW T02600241
KFPR 
10nm S 
130153Z AUTO 00000KT 10SM CLR 26/24 A3003 RMK AO2 SLP170 T02560244
TAF
KVRB 121736Z 1218/1318 10009KT P6SM VCTS SCT035CB SCT060 BKN150 FM122200 15007KT P6SM VCSH FEW060 SCT120 BKN250 FM130100 VRB03KT P6SM FEW030 BKN250
KFPR 
10nm S 
121736Z 1218/1318 12011KT P6SM VCTS SCT035CB SCT060 BKN150 FM122200 15007KT P6SM VCSH FEW060 SCT120 BKN250 FM130100 VRB03KT P6SM FEW030 BKN250
NOTAMs
Click for the latest NOTAMs
NOTAMs are issued by the DoD/FAA and will open in a separate window not controlled by AirNav.

 

 
 

Would you like to see your business listed on this page?

 If your business provides an interesting product or service to pilots, flight crews, aircraft, or users of the Indian River County Sheriff's Office Heliport, you should consider listing it here.  To start the listing process, click on the button below
 
Add a business
 

Other Pages about Indian River County Sheriff's Office Heliport

Update a link
 
Copyright © AirNav, LLC. All rights reserved. Privacy Policy  Contact